createdAt,value
2018-02-03T01:35:19.309Z,12.00
2018-02-03T01:54:39.595Z,0.00
2018-02-03T01:55:39.618Z,0.00
2018-02-03T01:57:32.737Z,0.00
2018-02-03T01:58:32.718Z,0.00
2018-02-03T02:00:25.803Z,0.00
2018-02-03T02:01:25.803Z,0.00
2018-02-03T02:03:18.826Z,0.00
2018-02-03T02:04:18.884Z,0.00
2018-02-03T02:05:18.960Z,0.00
2018-02-03T02:06:19.026Z,0.00
2018-02-03T02:07:19.098Z,0.00
2018-02-03T02:08:19.175Z,0.00
2018-02-03T02:09:19.237Z,0.00
2018-02-03T02:10:19.314Z,0.00
2018-02-03T02:11:19.374Z,0.00
2018-02-03T02:12:19.457Z,0.00
2018-02-03T02:13:19.522Z,0.00
2018-02-03T02:14:19.596Z,0.00
2018-02-03T02:15:19.659Z,0.00
2018-02-03T02:16:19.734Z,0.00
2018-02-03T02:17:19.796Z,0.00
2018-02-03T02:18:19.871Z,0.00
2018-02-03T02:19:19.933Z,0.00
2018-02-03T02:20:20.005Z,0.00
2018-02-03T02:21:20.075Z,0.00
2018-02-03T02:22:20.152Z,0.00
2018-02-03T02:23:20.210Z,0.00
2018-02-03T02:24:20.282Z,0.00
2018-02-03T02:25:20.348Z,0.00
2018-02-03T02:26:20.416Z,0.00
2018-02-03T02:27:20.476Z,0.00
2018-02-03T02:28:20.551Z,0.00
2018-02-03T02:29:20.619Z,0.00
2018-02-03T02:30:20.692Z,0.00
2018-02-03T02:31:20.793Z,0.00
2018-02-03T02:32:20.834Z,0.00
2018-02-03T02:33:20.890Z,0.00
2018-02-03T02:34:20.957Z,0.00
2018-02-03T02:35:21.020Z,0.00
2018-02-03T02:36:21.089Z,0.00
2018-02-03T02:37:21.163Z,0.00
2018-02-03T02:38:21.224Z,0.00
2018-02-03T02:39:21.291Z,0.00
2018-02-03T02:40:21.379Z,0.00
2018-02-03T02:41:21.428Z,0.00
2018-02-03T02:42:21.493Z,0.00
2018-02-03T02:43:21.554Z,0.00
2018-02-03T02:44:21.631Z,0.00
2018-02-03T02:45:21.700Z,0.00
2018-02-03T02:46:21.760Z,0.00
2018-02-03T02:47:21.983Z,0.00
2018-02-03T02:48:21.897Z,0.00
2018-02-03T02:49:21.971Z,0.00
2018-02-03T02:50:22.072Z,0.00
2018-02-03T02:51:22.096Z,0.00
2018-02-03T02:52:22.165Z,0.00
2018-02-03T02:53:22.233Z,0.00
2018-02-03T02:54:22.297Z,0.00
2018-02-03T02:55:22.367Z,0.00
2018-02-03T02:56:22.426Z,0.00
2018-02-03T02:57:22.510Z,0.00
2018-02-03T02:58:22.566Z,0.00
2018-02-03T02:59:22.641Z,0.00
2018-02-03T03:00:22.695Z,0.00
2018-02-03T03:01:22.772Z,0.00
2018-02-03T03:02:22.836Z,0.00
2018-02-03T03:03:22.900Z,0.00
2018-02-03T03:04:22.967Z,0.00
2018-02-03T03:05:23.049Z,0.00
2018-02-03T03:06:23.106Z,0.00
2018-02-03T03:07:23.181Z,0.00
2018-02-03T03:08:23.243Z,0.00
2018-02-03T03:09:23.328Z,0.00
2018-02-03T03:10:23.366Z,0.00
2018-02-03T03:11:23.458Z,0.00
2018-02-03T03:12:23.500Z,0.00
2018-02-03T03:13:23.578Z,0.00
2018-02-03T03:14:23.671Z,0.00
2018-02-03T03:15:23.700Z,0.00
2018-02-03T03:16:23.767Z,0.00
2018-02-03T03:17:23.838Z,0.00
2018-02-03T03:18:23.973Z,0.00
2018-02-03T03:19:23.979Z,0.00
2018-02-03T03:20:24.044Z,0.00
2018-02-03T03:21:24.129Z,0.00
2018-02-03T03:22:24.173Z,0.00
2018-02-03T03:23:24.235Z,0.00
2018-02-03T03:24:24.307Z,0.00
2018-02-03T03:25:24.379Z,0.00
2018-02-03T03:26:24.439Z,0.00
2018-02-03T03:27:24.506Z,0.00
2018-02-03T03:28:24.598Z,0.00
2018-02-03T03:29:24.647Z,0.00
2018-02-03T03:30:24.724Z,0.00
2018-02-03T03:31:24.768Z,0.00
2018-02-03T03:32:24.838Z,0.00
2018-02-03T03:33:24.906Z,0.00
2018-02-03T03:34:24.966Z,0.00
2018-02-03T03:35:25.041Z,0.00
2018-02-03T03:36:25.097Z,0.00
2018-02-03T03:37:25.173Z,0.00
2018-02-03T03:38:25.239Z,0.00
2018-02-03T03:39:25.302Z,0.00
2018-02-03T03:40:25.367Z,0.00
2018-02-03T03:41:25.465Z,0.00
2018-02-03T03:42:25.505Z,0.00
2018-02-03T03:43:25.566Z,0.00
2018-02-03T03:44:25.646Z,0.00
2018-02-03T03:45:25.703Z,0.00
2018-02-03T03:46:25.772Z,0.00
2018-02-03T03:47:25.838Z,0.00
2018-02-03T03:48:25.904Z,0.00
2018-02-03T03:49:25.966Z,0.00
2018-02-03T03:50:26.037Z,0.00
2018-02-03T03:51:26.114Z,0.00
2018-02-03T03:52:26.177Z,0.00
2018-02-03T03:53:26.235Z,0.00
2018-02-03T03:54:26.303Z,0.00
2018-02-03T03:55:26.373Z,0.00
2018-02-03T03:56:26.433Z,0.00
2018-02-03T03:57:26.503Z,0.00
2018-02-03T03:58:26.584Z,0.00
2018-02-03T03:59:31.351Z,0.00
2018-02-03T04:00:26.725Z,0.00
2018-02-03T04:01:26.773Z,0.00
2018-02-03T04:02:26.836Z,0.00
2018-02-03T04:03:26.902Z,0.00
2018-02-03T04:04:26.966Z,0.00
2018-02-03T04:05:27.044Z,0.00
2018-02-03T04:06:27.100Z,0.00
2018-02-03T04:07:27.182Z,0.00
2018-02-03T04:08:27.237Z,0.00
2018-02-03T04:09:27.299Z,0.00
2018-02-03T04:10:27.369Z,0.00
2018-02-03T04:11:27.436Z,0.00
2018-02-03T04:12:27.507Z,0.00
2018-02-03T04:13:27.569Z,0.00
2018-02-03T04:14:27.632Z,0.00
2018-02-03T04:15:27.701Z,0.00
2018-02-03T04:16:27.772Z,0.00
2018-02-03T04:17:27.871Z,0.00
2018-02-03T04:18:27.899Z,0.00
2018-02-03T04:19:27.972Z,0.00
2018-02-03T04:20:28.029Z,0.00
2018-02-03T04:21:28.099Z,0.00
2018-02-03T04:22:28.164Z,0.00
2018-02-03T04:23:28.226Z,0.00
2018-02-03T04:24:28.301Z,0.00
2018-02-03T04:25:28.504Z,0.00
2018-02-03T04:26:28.431Z,0.00
2018-02-03T04:27:28.508Z,0.00
2018-02-03T04:28:28.567Z,0.00
2018-02-03T04:29:28.637Z,0.00
2018-02-03T04:30:28.702Z,0.00
2018-02-03T04:31:28.771Z,0.00
2018-02-03T04:32:28.842Z,0.00
2018-02-03T04:33:28.899Z,0.00
2018-02-03T04:34:28.965Z,0.00
2018-02-03T04:35:29.033Z,0.00
2018-02-03T04:36:29.101Z,0.00
2018-02-03T04:37:29.178Z,0.00
2018-02-03T04:38:29.275Z,0.00
2018-02-03T04:39:29.297Z,0.00
2018-02-03T04:40:29.373Z,0.00
2018-02-03T04:41:29.432Z,0.00
2018-02-03T04:42:29.501Z,0.00
2018-02-03T04:43:29.571Z,0.00
2018-02-03T04:44:29.626Z,0.00
2018-02-03T04:45:29.693Z,0.00
2018-02-03T04:46:29.768Z,0.00
2018-02-03T04:47:29.827Z,0.00
2018-02-03T04:48:29.918Z,0.00
2018-02-03T04:49:29.974Z,0.00
2018-02-03T04:50:30.038Z,0.00
2018-02-03T04:51:30.102Z,0.00
2018-02-03T04:52:30.168Z,0.00
2018-02-03T04:53:30.228Z,0.00
2018-02-03T04:54:30.299Z,0.00
2018-02-03T04:55:30.373Z,0.00
2018-02-03T04:56:30.434Z,0.00
2018-02-03T04:57:30.510Z,0.00
2018-02-03T04:58:30.571Z,0.00
2018-02-03T04:59:30.643Z,0.00
2018-02-03T05:00:30.701Z,0.00
2018-02-03T05:01:30.767Z,0.00
2018-02-03T05:02:30.832Z,0.00
2018-02-03T05:03:30.896Z,0.00
2018-02-03T05:04:30.970Z,0.00
2018-02-03T05:05:31.037Z,0.00
2018-02-03T05:06:31.098Z,0.00
2018-02-03T05:07:31.166Z,0.00
2018-02-03T05:08:31.238Z,0.00
2018-02-03T05:09:31.297Z,0.00
2018-02-03T05:10:31.363Z,0.00
2018-02-03T05:11:31.437Z,0.00
2018-02-03T05:12:31.502Z,0.00
2018-02-03T05:13:31.562Z,0.00
2018-02-03T05:14:31.638Z,0.00
2018-02-03T05:15:31.699Z,0.00
2018-02-03T05:16:31.766Z,0.00
2018-02-03T05:17:31.834Z,0.00
2018-02-03T05:18:31.894Z,0.00
2018-02-03T05:19:31.962Z,0.00
2018-02-03T05:20:32.032Z,0.00
2018-02-03T05:21:32.092Z,0.00
2018-02-03T05:22:32.160Z,0.00
2018-02-03T05:23:32.227Z,0.00
2018-02-03T05:24:32.295Z,0.00
2018-02-03T05:25:32.363Z,0.00
2018-02-03T05:26:32.429Z,0.00
2018-02-03T05:27:32.496Z,0.00
2018-02-03T05:28:32.559Z,0.00
2018-02-03T05:29:32.642Z,0.00
2018-02-03T05:30:32.694Z,0.00
2018-02-03T05:31:32.767Z,0.00
2018-02-03T05:32:32.834Z,0.00
2018-02-03T05:33:32.900Z,0.00
2018-02-03T05:34:32.964Z,0.00
2018-02-03T05:35:33.024Z,0.00
2018-02-03T05:36:33.098Z,0.00
2018-02-03T05:37:33.163Z,0.00
2018-02-03T05:38:33.224Z,0.00
2018-02-03T05:39:33.285Z,0.00
2018-02-03T05:40:33.401Z,0.00
2018-02-03T05:41:33.432Z,0.00
2018-02-03T05:42:33.494Z,0.00
2018-02-03T05:43:33.572Z,0.00
2018-02-03T05:44:33.629Z,0.00
2018-02-03T05:45:33.688Z,0.00
2018-02-03T05:46:33.764Z,0.00
2018-02-03T05:47:33.825Z,0.00
2018-02-03T05:48:33.896Z,0.00
2018-02-03T05:49:33.958Z,0.00
2018-02-03T05:50:34.073Z,0.00
2018-02-03T05:51:34.105Z,0.00
2018-02-03T05:52:34.156Z,0.00
2018-02-03T05:53:34.227Z,0.00
2018-02-03T05:54:34.296Z,0.00
2018-02-03T05:55:34.367Z,0.00
2018-02-03T05:56:34.419Z,0.00
2018-02-03T05:57:34.493Z,0.00
2018-02-03T05:58:34.557Z,0.00
2018-02-03T05:59:39.376Z,0.00
2018-02-03T06:00:34.703Z,0.00
2018-02-03T06:01:34.758Z,0.00
2018-02-03T06:02:34.830Z,0.00
2018-02-03T06:03:34.896Z,0.00
2018-02-03T06:04:34.954Z,0.00
2018-02-03T06:05:35.022Z,0.00
2018-02-03T06:06:35.664Z,0.00
2018-02-03T06:07:35.155Z,0.00
2018-02-03T06:08:35.217Z,0.00
2018-02-03T06:09:35.283Z,0.00
2018-02-03T06:10:35.408Z,0.00
2018-02-03T06:11:35.419Z,0.00
2018-02-03T06:12:35.488Z,0.00
2018-02-03T06:13:35.554Z,0.00
2018-02-03T06:14:35.623Z,0.00
2018-02-03T06:15:35.681Z,0.00
2018-02-03T06:16:35.749Z,0.00
2018-02-03T06:17:35.841Z,0.00
2018-02-03T06:18:35.880Z,0.00
2018-02-03T06:19:35.972Z,0.00
2018-02-03T06:20:36.016Z,0.00
2018-02-03T06:21:36.085Z,0.00
2018-02-03T06:22:36.152Z,0.00
2018-02-03T06:23:36.229Z,0.00
2018-02-03T06:24:36.293Z,0.00
2018-02-03T06:25:36.343Z,0.00
2018-02-03T06:26:36.415Z,0.00
2018-02-03T06:27:36.482Z,0.00
2018-02-03T06:28:36.543Z,0.00
2018-02-03T06:29:36.618Z,0.00
2018-02-03T06:30:36.674Z,0.00
2018-02-03T06:31:36.739Z,0.00
2018-02-03T06:32:36.813Z,0.00
2018-02-03T06:33:36.867Z,4.00
2018-02-03T06:34:36.937Z,4.00
2018-02-03T06:35:37.009Z,4.00
2018-02-03T06:36:37.107Z,0.00
2018-02-03T06:37:37.141Z,4.00
2018-02-03T06:38:37.199Z,4.00
2018-02-03T06:39:37.261Z,4.00
2018-02-03T06:40:37.333Z,4.00
2018-02-03T06:41:37.398Z,8.00
2018-02-03T06:42:37.465Z,12.00
2018-02-03T06:43:37.531Z,8.00
2018-02-03T06:44:37.591Z,12.00
2018-02-03T06:45:37.667Z,16.00
2018-02-03T06:46:37.734Z,16.00
2018-02-03T06:47:37.787Z,20.00
2018-02-03T06:48:37.857Z,24.00
2018-02-03T06:49:37.930Z,28.00
2018-02-03T06:50:37.995Z,36.00
2018-02-03T06:51:38.054Z,40.00
2018-02-03T06:52:38.123Z,44.00
2018-02-03T06:53:38.270Z,48.00
2018-02-03T06:54:38.256Z,52.00
2018-02-03T06:55:38.318Z,56.00
2018-02-03T06:56:38.390Z,64.00
2018-02-03T06:57:38.450Z,68.00
2018-02-03T06:58:38.522Z,76.00
2018-02-03T06:59:38.580Z,80.00
2018-02-03T07:00:38.644Z,76.00
2018-02-03T07:01:38.718Z,72.00
2018-02-03T07:02:38.786Z,68.00
2018-02-03T07:03:38.840Z,72.00
2018-02-03T07:04:38.909Z,84.00
2018-02-03T07:05:38.983Z,108.00
2018-02-03T07:06:39.039Z,120.00
2018-02-03T07:07:39.112Z,132.00
2018-02-03T07:08:39.175Z,136.00
2018-02-03T07:09:39.237Z,132.00
2018-02-03T07:10:39.308Z,128.00
2018-02-03T07:11:39.377Z,128.00
2018-02-03T07:12:39.444Z,128.00
2018-02-03T07:13:39.503Z,120.00
2018-02-03T07:14:39.582Z,128.00
2018-02-03T07:15:39.631Z,136.00
2018-02-03T07:16:39.692Z,144.00
2018-02-03T07:17:39.765Z,160.00
2018-02-03T07:18:39.822Z,176.00
2018-02-03T07:19:39.896Z,188.00
2018-02-03T07:20:39.961Z,208.00
2018-02-03T07:21:40.023Z,228.00
2018-02-03T07:22:40.161Z,240.00
2018-02-03T07:23:40.160Z,248.00
2018-02-03T07:24:40.272Z,252.00
2018-02-03T07:25:40.302Z,260.00
2018-02-03T07:26:40.366Z,284.00
2018-02-03T07:27:40.422Z,300.00
2018-02-03T07:28:40.492Z,316.00
2018-02-03T07:29:40.578Z,328.00
2018-02-03T07:30:40.622Z,348.00
2018-02-03T07:31:40.704Z,368.00
2018-02-03T07:32:40.748Z,392.00
2018-02-03T07:33:40.815Z,404.00
2018-02-03T07:34:40.881Z,416.00
2018-02-03T07:35:40.947Z,456.00
2018-02-03T07:36:41.022Z,480.00
2018-02-03T07:37:41.079Z,480.00
2018-02-03T07:38:41.149Z,488.00
2018-02-03T07:39:41.213Z,492.00
2018-02-03T07:40:41.298Z,484.00
2018-02-03T07:41:41.344Z,464.00
2018-02-03T07:42:41.406Z,432.00
2018-02-03T07:43:41.483Z,416.00
2018-02-03T07:44:41.574Z,420.00
2018-02-03T07:45:41.604Z,452.00
2018-02-03T07:46:41.676Z,488.00
2018-02-03T07:47:41.733Z,504.00
2018-02-03T07:48:41.805Z,508.00
2018-02-03T07:49:41.869Z,520.00
2018-02-03T07:50:41.942Z,512.00
2018-02-03T07:51:42.030Z,476.00
2018-02-03T07:52:42.072Z,508.00
2018-02-03T07:53:42.164Z,572.00
2018-02-03T07:54:42.208Z,596.00
2018-02-03T07:55:42.273Z,636.00
2018-02-03T07:56:42.333Z,616.00
2018-02-03T07:57:42.410Z,568.00
2018-02-03T07:58:42.478Z,592.00
2018-02-03T07:59:42.572Z,688.00
2018-02-03T08:00:42.615Z,756.00
2018-02-03T08:01:42.664Z,764.00
2018-02-03T08:02:42.732Z,868.00
2018-02-03T08:03:42.838Z,976.00
2018-02-03T08:04:42.871Z,1032.00
2018-02-03T08:05:42.933Z,1108.00
2018-02-03T08:06:43.008Z,1192.00
2018-02-03T08:07:43.063Z,1240.00
2018-02-03T08:08:43.131Z,1272.00
2018-02-03T08:09:43.564Z,1284.00
2018-02-03T08:10:43.797Z,1284.00
2018-02-03T08:11:43.328Z,1300.00
2018-02-03T08:12:43.398Z,1336.00
2018-02-03T08:13:43.541Z,1368.00
2018-02-03T08:14:43.539Z,1396.00
2018-02-03T08:15:43.658Z,1404.00
2018-02-03T08:16:43.666Z,1404.00
2018-02-03T08:17:43.724Z,1416.00
2018-02-03T08:18:43.792Z,1428.00
2018-02-03T08:19:43.860Z,1460.00
2018-02-03T08:20:43.922Z,1476.00
2018-02-03T08:21:43.988Z,1464.00
2018-02-03T08:22:44.062Z,1464.00
2018-02-03T08:23:44.200Z,1452.00
2018-02-03T08:24:44.187Z,1432.00
2018-02-03T08:25:44.254Z,1504.00
2018-02-03T08:26:44.348Z,1640.00
2018-02-03T08:27:44.403Z,1712.00
2018-02-03T08:28:44.464Z,1748.00
2018-02-03T08:29:49.419Z,1756.00
2018-02-03T08:30:44.603Z,1820.00
2018-02-03T08:31:44.656Z,1888.00
2018-02-03T08:32:44.725Z,1864.00
2018-02-03T08:33:44.789Z,1924.00
2018-02-03T08:34:44.850Z,2016.00
2018-02-03T08:35:44.913Z,2080.00
2018-02-03T08:36:45.035Z,2140.00
2018-02-03T08:37:45.114Z,2216.00
2018-02-03T08:38:45.127Z,2288.00
2018-02-03T08:39:45.193Z,2292.00
2018-02-03T08:40:45.242Z,2200.00
2018-02-03T08:41:45.429Z,2036.00
2018-02-03T08:42:45.384Z,1924.00
2018-02-03T08:43:45.452Z,1968.00
2018-02-03T08:44:45.535Z,2016.00
2018-02-03T08:45:45.578Z,1924.00
2018-02-03T08:46:45.702Z,1988.00
2018-02-03T08:47:45.719Z,1968.00
2018-02-03T08:48:45.777Z,1968.00
2018-02-03T08:49:45.858Z,2112.00
2018-02-03T08:50:45.904Z,2260.00
2018-02-03T08:51:46.178Z,2308.00
2018-02-03T08:52:46.043Z,2376.00
2018-02-03T08:53:46.119Z,2480.00
2018-02-03T08:54:46.168Z,2416.00
2018-02-03T08:55:46.247Z,2224.00
2018-02-03T08:56:46.315Z,2228.00
2018-02-03T08:57:46.378Z,2532.00
2018-02-03T08:58:46.447Z,2656.00
2018-02-03T08:59:46.514Z,2592.00
2018-02-03T09:00:46.583Z,2332.00
2018-02-03T09:01:46.660Z,2120.00
2018-02-03T09:02:46.717Z,2072.00
2018-02-03T09:03:46.787Z,2032.00
2018-02-03T09:04:46.855Z,2036.00
2018-02-03T09:05:46.918Z,2100.00
2018-02-03T09:06:46.981Z,1868.00
2018-02-03T09:07:47.051Z,1868.00
2018-02-03T09:08:47.112Z,2172.00
2018-02-03T09:09:47.184Z,2464.00
2018-02-03T09:10:47.252Z,2544.00
2018-02-03T09:11:47.318Z,2412.00
2018-02-03T09:12:47.386Z,2144.00
2018-02-03T09:13:47.454Z,2128.00
2018-02-03T09:14:47.516Z,2236.00
2018-02-03T09:15:47.586Z,2244.00
2018-02-03T09:16:47.651Z,2196.00
2018-02-03T09:17:47.721Z,2308.00
2018-02-03T09:18:47.782Z,2448.00
2018-02-03T09:19:47.849Z,2436.00
2018-02-03T09:20:47.913Z,2400.00
2018-02-03T09:21:47.989Z,2728.00
2018-02-03T09:22:48.063Z,3120.00
2018-02-03T09:23:48.396Z,3180.00
2018-02-03T09:24:48.206Z,3184.00
2018-02-03T09:25:48.251Z,3508.00
2018-02-03T09:26:48.321Z,3952.00
2018-02-03T09:27:48.409Z,4332.00
2018-02-03T09:28:48.455Z,4548.00
2018-02-03T09:29:48.525Z,4276.00
2018-02-03T09:30:48.609Z,3676.00
2018-02-03T09:31:48.718Z,3300.00
2018-02-03T09:32:48.718Z,3340.00
2018-02-03T09:33:48.799Z,3288.00
2018-02-03T09:34:48.863Z,3264.00
2018-02-03T09:35:48.924Z,3164.00
2018-02-03T09:36:48.990Z,3116.00
2018-02-03T09:37:49.059Z,3152.00
2018-02-03T09:38:49.127Z,3052.00
2018-02-03T09:39:49.187Z,3024.00
2018-02-03T09:40:49.266Z,2956.00
2018-02-03T09:41:49.335Z,3176.00
2018-02-03T09:42:49.391Z,3456.00
2018-02-03T09:43:49.462Z,3312.00
2018-02-03T09:44:49.557Z,3348.00
2018-02-03T09:45:49.598Z,3428.00
2018-02-03T09:46:49.659Z,3416.00
2018-02-03T09:47:49.729Z,3120.00
2018-02-03T09:48:49.801Z,3096.00
2018-02-03T09:49:49.872Z,3352.00
2018-02-03T09:50:49.932Z,3224.00
2018-02-03T09:51:50.005Z,3108.00
2018-02-03T09:52:50.106Z,3276.00
2018-02-03T09:53:50.148Z,3616.00
2018-02-03T09:54:50.202Z,3924.00
2018-02-03T09:55:50.280Z,4200.00
2018-02-03T09:56:50.337Z,4344.00
2018-02-03T09:57:50.409Z,4740.00
2018-02-03T09:58:50.470Z,5260.00
2018-02-03T09:59:50.541Z,5520.00
2018-02-03T10:00:50.607Z,5528.00
2018-02-03T10:01:50.675Z,4992.00
2018-02-03T10:02:50.742Z,4328.00
2018-02-03T10:03:50.811Z,3932.00
2018-02-03T10:04:50.878Z,3676.00
2018-02-03T10:05:50.956Z,3528.00
2018-02-03T10:06:51.012Z,3640.00
2018-02-03T10:07:51.087Z,3916.00
2018-02-03T10:08:51.152Z,4000.00
2018-02-03T10:09:51.230Z,3844.00
2018-02-03T10:10:51.295Z,3756.00
2018-02-03T10:11:51.348Z,3616.00
2018-02-03T10:12:51.442Z,3404.00
2018-02-03T10:13:51.487Z,3280.00
2018-02-03T10:14:51.565Z,3272.00
2018-02-03T10:15:51.660Z,3424.00
2018-02-03T10:16:51.696Z,3600.00
2018-02-03T10:17:51.760Z,3628.00
2018-02-03T10:18:51.824Z,3660.00
2018-02-03T10:19:51.919Z,3800.00
2018-02-03T10:20:51.991Z,3924.00
2018-02-03T10:21:52.028Z,4052.00
2018-02-03T10:22:52.094Z,4108.00
2018-02-03T10:23:52.252Z,4012.00
2018-02-03T10:24:52.222Z,3760.00
2018-02-03T10:25:52.310Z,3620.00
2018-02-03T10:26:52.367Z,3440.00
2018-02-03T10:27:52.425Z,3392.00
2018-02-03T10:28:52.525Z,3360.00
2018-02-03T10:29:52.570Z,3192.00
2018-02-03T10:30:52.643Z,3064.00
2018-02-03T10:31:52.706Z,3040.00
2018-02-03T10:32:52.764Z,3052.00
2018-02-03T10:33:52.836Z,2956.00
2018-02-03T10:34:52.909Z,2864.00
2018-02-03T10:35:52.981Z,2892.00
2018-02-03T10:36:53.047Z,3316.00
2018-02-03T10:37:53.105Z,4116.00
2018-02-03T10:38:53.225Z,5480.00
2018-02-03T10:39:53.247Z,6636.00
2018-02-03T10:40:53.314Z,6992.00
2018-02-03T10:41:53.385Z,6668.00
2018-02-03T10:42:53.443Z,6988.00
2018-02-03T10:43:53.513Z,6996.00
2018-02-03T10:44:53.581Z,6172.00
2018-02-03T10:45:53.657Z,5856.00
2018-02-03T10:46:53.718Z,6308.00
2018-02-03T10:47:53.782Z,6616.00
2018-02-03T10:48:53.859Z,6604.00
2018-02-03T10:49:53.924Z,6584.00
2018-02-03T10:50:53.987Z,6384.00
2018-02-03T10:51:54.060Z,5916.00
2018-02-03T10:52:54.123Z,5504.00
2018-02-03T10:53:54.190Z,5500.00
2018-02-03T10:54:54.258Z,5428.00
2018-02-03T10:55:54.331Z,5384.00
2018-02-03T10:56:54.398Z,5520.00
2018-02-03T10:57:54.461Z,5452.00
2018-02-03T10:58:54.530Z,5260.00
2018-02-03T10:59:54.606Z,5528.00
2018-02-03T11:00:54.668Z,5904.00
2018-02-03T11:01:54.748Z,6180.00
2018-02-03T11:02:54.828Z,6604.00
2018-02-03T11:03:54.879Z,7416.00
2018-02-03T11:04:54.939Z,8248.00
2018-02-03T11:05:55.010Z,8720.00
2018-02-03T11:06:55.080Z,8976.00
2018-02-03T11:07:55.149Z,8568.00
2018-02-03T11:08:55.273Z,8064.00
2018-02-03T11:09:55.302Z,7972.00
2018-02-03T11:10:55.369Z,8008.00
2018-02-03T11:11:55.419Z,6592.00
2018-02-03T11:12:55.491Z,6596.00
2018-02-03T11:13:55.558Z,6768.00
2018-02-03T11:14:55.624Z,7040.00
2018-02-03T11:15:55.708Z,7184.00
2018-02-03T11:16:55.770Z,7652.00
2018-02-03T11:17:55.828Z,8280.00
2018-02-03T11:18:55.910Z,8808.00
2018-02-03T11:19:55.974Z,9276.00
2018-02-03T11:20:56.038Z,9584.00
2018-02-03T11:21:56.113Z,10036.00
2018-02-03T11:22:56.186Z,10116.00
2018-02-03T11:23:56.247Z,10360.00
2018-02-03T11:24:56.326Z,14028.00
2018-02-03T11:25:56.392Z,15800.00
2018-02-03T11:26:56.456Z,11656.00
2018-02-03T11:27:56.515Z,11720.00
2018-02-03T11:28:56.585Z,17696.00
2018-02-03T11:29:56.658Z,15852.00
2018-02-03T11:30:56.727Z,20704.00
2018-02-03T11:31:56.788Z,22400.00
2018-02-03T11:32:56.870Z,22464.00
2018-02-03T11:33:56.957Z,19776.00
2018-02-03T11:34:57.007Z,18592.00
2018-02-03T11:35:57.081Z,20032.00
2018-02-03T11:36:57.149Z,19648.00
2018-02-03T11:37:57.217Z,16416.00
2018-02-03T11:38:57.396Z,17312.00
2018-02-03T11:39:57.539Z,17632.00
2018-02-03T11:40:57.444Z,11960.00
2018-02-03T11:41:57.503Z,13400.00
2018-02-03T11:42:57.609Z,11436.00
2018-02-03T11:43:57.665Z,10668.00
2018-02-03T11:44:57.734Z,10448.00
2018-02-03T11:45:57.790Z,9872.00
2018-02-03T11:46:57.852Z,9416.00
2018-02-03T11:47:57.919Z,10948.00
2018-02-03T11:48:58.031Z,11552.00
2018-02-03T11:49:58.072Z,8492.00
2018-02-03T11:50:58.153Z,10100.00
2018-02-03T11:51:58.249Z,9916.00
2018-02-03T11:52:58.286Z,10976.00
2018-02-03T11:53:58.361Z,10236.00
2018-02-03T11:54:58.424Z,9536.00
2018-02-03T11:55:58.521Z,8992.00
2018-02-03T11:56:58.583Z,8664.00
2018-02-03T11:57:58.642Z,8324.00
2018-02-03T11:58:58.710Z,8896.00
2018-02-03T11:59:58.876Z,7984.00
2018-02-03T12:00:58.851Z,7232.00
2018-02-03T12:01:58.916Z,6232.00
2018-02-03T12:02:58.985Z,5612.00
2018-02-03T12:03:59.065Z,5944.00
2018-02-03T12:04:59.122Z,6920.00
2018-02-03T12:05:59.199Z,6528.00
2018-02-03T12:06:59.266Z,5752.00
2018-02-03T12:07:59.336Z,5788.00
2018-02-03T12:08:59.408Z,8540.00
2018-02-03T12:09:59.485Z,6416.00
2018-02-03T12:10:59.551Z,7012.00
2018-02-03T12:11:59.615Z,7360.00
2018-02-03T12:12:59.689Z,7048.00
2018-02-03T12:13:59.767Z,6680.00
2018-02-03T12:14:59.857Z,6412.00
2018-02-03T12:15:59.907Z,6724.00
2018-02-03T12:16:59.973Z,7108.00
2018-02-03T12:18:00.045Z,7452.00
2018-02-03T12:19:00.106Z,7416.00
2018-02-03T12:20:00.172Z,6776.00
2018-02-03T12:21:00.257Z,6088.00
2018-02-03T12:22:00.321Z,6052.00
2018-02-03T12:23:00.384Z,6376.00
2018-02-03T12:24:00.455Z,6548.00
2018-02-03T12:25:00.580Z,6684.00
2018-02-03T12:26:00.592Z,6588.00
2018-02-03T12:27:00.667Z,6600.00
2018-02-03T12:28:00.736Z,6756.00
2018-02-03T12:29:00.805Z,6128.00
2018-02-03T12:30:00.894Z,5912.00
2018-02-03T12:31:00.939Z,6456.00
2018-02-03T12:32:01.017Z,6592.00
2018-02-03T12:33:01.155Z,6624.00
2018-02-03T12:34:01.147Z,6568.00
2018-02-03T12:35:01.225Z,6372.00
2018-02-03T12:36:01.290Z,6232.00
2018-02-03T12:37:01.358Z,6316.00
2018-02-03T12:38:01.431Z,6280.00
2018-02-03T12:39:01.500Z,6048.00
2018-02-03T12:40:01.567Z,5688.00
2018-02-03T12:41:01.637Z,5340.00
2018-02-03T12:42:01.704Z,5008.00
2018-02-03T12:43:01.773Z,4532.00
2018-02-03T12:44:01.844Z,3868.00
2018-02-03T12:45:01.914Z,3548.00
2018-02-03T12:46:01.977Z,3384.00
2018-02-03T12:47:02.051Z,3148.00
2018-02-03T12:48:02.134Z,3028.00
2018-02-03T12:49:02.197Z,3248.00
2018-02-03T12:50:02.295Z,3672.00
2018-02-03T12:51:02.327Z,3884.00
2018-02-03T12:52:02.396Z,4328.00
2018-02-03T12:53:02.494Z,4912.00
2018-02-03T12:54:02.542Z,5220.00
2018-02-03T12:55:02.607Z,5268.00
2018-02-03T12:56:02.732Z,5168.00
2018-02-03T12:57:02.744Z,4908.00
2018-02-03T12:58:02.821Z,5220.00
2018-02-03T12:59:02.894Z,5712.00
2018-02-03T13:00:02.950Z,5792.00
2018-02-03T13:01:03.018Z,5288.00
2018-02-03T13:02:03.098Z,4996.00
2018-02-03T13:03:03.382Z,5208.00
2018-02-03T13:04:03.226Z,5512.00
2018-02-03T13:05:03.300Z,5528.00
2018-02-03T13:06:03.375Z,5476.00
2018-02-03T13:07:03.430Z,5156.00
2018-02-03T13:08:03.508Z,4828.00
2018-02-03T13:09:03.599Z,4492.00
2018-02-03T13:10:03.656Z,4060.00
2018-02-03T13:11:03.706Z,3592.00
2018-02-03T13:12:03.789Z,3340.00
2018-02-03T13:13:03.858Z,3156.00
2018-02-03T13:14:03.925Z,3148.00
2018-02-03T13:15:04.000Z,3268.00
2018-02-03T13:16:04.921Z,3196.00
2018-02-03T13:17:04.130Z,3084.00
2018-02-03T13:18:04.196Z,3000.00
2018-02-03T13:19:04.263Z,2908.00
2018-02-03T13:20:04.332Z,2708.00
2018-02-03T13:21:04.412Z,2452.00
2018-02-03T13:22:04.476Z,2296.00
2018-02-03T13:23:04.554Z,2208.00
2018-02-03T13:24:04.605Z,1996.00
2018-02-03T13:25:04.756Z,1784.00
2018-02-03T13:26:04.753Z,1588.00
2018-02-03T13:27:04.818Z,1488.00
2018-02-03T13:28:04.880Z,1464.00
2018-02-03T13:29:04.954Z,1508.00
2018-02-03T13:30:05.053Z,1676.00
2018-02-03T13:31:05.085Z,1860.00
2018-02-03T13:32:05.163Z,2056.00
2018-02-03T13:33:05.253Z,2360.00
2018-02-03T13:34:05.296Z,2696.00
2018-02-03T13:35:05.362Z,2884.00
2018-02-03T13:36:05.420Z,2880.00
2018-02-03T13:37:05.499Z,2752.00
2018-02-03T13:38:05.581Z,2624.00
2018-02-03T13:39:05.664Z,2652.00
2018-02-03T13:40:05.719Z,2752.00
2018-02-03T13:41:05.769Z,2456.00
2018-02-03T13:42:05.840Z,1932.00
2018-02-03T13:43:05.917Z,1504.00
2018-02-03T13:44:05.970Z,1468.00
2018-02-03T13:45:06.053Z,1788.00
2018-02-03T13:46:06.109Z,2124.00
2018-02-03T13:47:06.178Z,2248.00
2018-02-03T13:48:06.244Z,2268.00
2018-02-03T13:49:06.317Z,2168.00
2018-02-03T13:50:06.378Z,2024.00
2018-02-03T13:51:06.480Z,1780.00
2018-02-03T13:52:06.516Z,1508.00
2018-02-03T13:53:06.585Z,1420.00
2018-02-03T13:54:06.650Z,1564.00
2018-02-03T13:55:07.300Z,1864.00
2018-02-03T13:56:06.789Z,2180.00
2018-02-03T13:57:06.854Z,2492.00
2018-02-03T13:58:06.920Z,2772.00
2018-02-03T13:59:07.004Z,3020.00
2018-02-03T14:00:07.074Z,3220.00
2018-02-03T14:01:07.121Z,3396.00
2018-02-03T14:02:07.217Z,3580.00
2018-02-03T14:03:07.258Z,3792.00
2018-02-03T14:04:07.342Z,3984.00
2018-02-03T14:05:07.392Z,4152.00
2018-02-03T14:06:07.458Z,4308.00
2018-02-03T14:07:07.523Z,4440.00
2018-02-03T14:08:07.598Z,4436.00
2018-02-03T14:09:07.659Z,4368.00
2018-02-03T14:10:07.725Z,4412.00
2018-02-03T14:11:07.809Z,4436.00
2018-02-03T14:12:07.872Z,4404.00
2018-02-03T14:13:07.931Z,4388.00
2018-02-03T14:14:08.027Z,4340.00
2018-02-03T14:15:08.201Z,4116.00
2018-02-03T14:16:08.145Z,3900.00
2018-02-03T14:17:08.203Z,3900.00
2018-02-03T14:18:08.268Z,4160.00
2018-02-03T14:19:08.345Z,4412.00
2018-02-03T14:20:08.407Z,4536.00
2018-02-03T14:21:08.486Z,4496.00
2018-02-03T14:22:08.549Z,4280.00
2018-02-03T14:23:08.620Z,4080.00
2018-02-03T14:24:08.674Z,3900.00
2018-02-03T14:25:08.742Z,3664.00
2018-02-03T14:26:08.818Z,3468.00
2018-02-03T14:27:08.890Z,3216.00
2018-02-03T14:28:08.942Z,2868.00
2018-02-03T14:29:40.994Z,2344.00
2018-02-03T14:30:09.089Z,1988.00
2018-02-03T14:31:09.163Z,1820.00